createdAt,value
2017-04-01T00:00:39.491Z,3.67
2017-04-01T00:01:38.299Z,3.73
2017-04-01T00:02:36.723Z,4.22
2017-04-01T00:03:35.471Z,4.00
2017-04-01T00:04:34.608Z,3.78
2017-04-01T00:05:33.695Z,3.38
2017-04-01T00:06:32.457Z,4.07
2017-04-01T00:07:31.212Z,3.57
2017-04-01T00:08:31.176Z,4.03
2017-04-01T00:09:35.757Z,3.92
2017-04-01T00:10:34.547Z,3.37
2017-04-01T00:11:33.295Z,3.88
2017-04-01T00:12:32.051Z,4.30
2017-04-01T00:13:30.792Z,3.65
2017-04-01T00:14:29.589Z,3.62
2017-04-01T00:15:27.983Z,4.05
2017-04-01T00:16:27.116Z,3.37
2017-04-01T00:17:25.863Z,4.48
2017-04-01T00:18:24.639Z,3.30
2017-04-01T00:19:23.080Z,3.60
2017-04-01T00:20:21.788Z,4.30
2017-04-01T00:21:20.738Z,3.47
2017-04-01T00:22:20.197Z,3.78
2017-04-01T00:23:18.940Z,3.75
2017-04-01T00:24:18.015Z,3.93
2017-04-01T00:25:16.800Z,4.05
2017-04-01T00:26:15.621Z,4.03
2017-04-01T00:27:14.374Z,3.83
2017-04-01T00:28:13.472Z,3.87
2017-04-01T00:29:12.235Z,4.18
2017-04-01T00:30:10.613Z,3.77
2017-04-01T00:31:09.371Z,3.97
2017-04-01T00:32:08.108Z,3.72
2017-04-01T00:33:07.251Z,3.98
2017-04-01T00:34:06.353Z,3.75
2017-04-01T00:35:05.257Z,3.87
2017-04-01T00:36:04.044Z,3.98
2017-04-01T00:37:02.824Z,3.85
2017-04-01T00:38:01.607Z,4.68
2017-04-01T00:38:59.995Z,4.73
2017-04-01T00:39:59.118Z,3.73
2017-04-01T00:40:57.863Z,3.85
2017-04-01T00:41:56.639Z,3.78
2017-04-01T00:42:55.012Z,3.80
2017-04-01T00:43:53.746Z,4.55
2017-04-01T00:44:52.071Z,4.03
2017-04-01T00:45:51.131Z,3.98
2017-04-01T00:46:49.878Z,4.17
2017-04-01T00:47:48.607Z,3.87
2017-04-01T00:48:47.382Z,3.88
2017-04-01T00:49:45.747Z,4.27
2017-04-01T00:50:45.591Z,3.48
2017-04-01T00:51:44.656Z,4.30
2017-04-01T00:52:43.443Z,3.67
2017-04-01T00:53:42.217Z,3.95
2017-04-01T00:54:41.008Z,3.50
2017-04-01T00:55:39.362Z,3.82
2017-04-01T00:56:38.475Z,3.52
2017-04-01T00:57:37.223Z,3.85
2017-04-01T00:58:36.002Z,3.67
2017-04-01T00:59:34.771Z,4.05
2017-04-01T01:00:33.898Z,3.47
2017-04-01T01:01:32.679Z,3.60
2017-04-01T01:02:31.148Z,3.73
2017-04-01T01:03:30.303Z,4.35
2017-04-01T01:04:29.052Z,3.55
2017-04-01T01:05:27.385Z,3.87
2017-04-01T01:06:26.136Z,3.50
2017-04-01T01:07:24.931Z,3.67
2017-04-01T01:08:23.682Z,3.28
2017-04-01T01:09:22.759Z,3.57
2017-04-01T01:10:21.512Z,4.62
2017-04-01T01:11:20.288Z,4.32
2017-04-01T01:12:19.029Z,4.00
2017-04-01T01:13:18.162Z,3.78
2017-04-01T01:14:16.914Z,3.85
2017-04-01T01:15:16.043Z,3.55
2017-04-01T01:16:14.818Z,3.58
2017-04-01T01:17:13.580Z,3.85
2017-04-01T01:18:12.327Z,4.30
2017-04-01T01:19:11.083Z,3.68
2017-04-01T01:20:10.005Z,4.43
2017-04-01T01:21:09.027Z,3.87
2017-04-01T01:22:07.775Z,3.15
2017-04-01T01:23:06.553Z,3.28
2017-04-01T01:24:05.340Z,4.12
2017-04-01T01:25:04.095Z,4.45
2017-04-01T01:26:02.932Z,4.58
2017-04-01T01:27:01.683Z,5.08
2017-04-01T01:28:00.449Z,3.32
2017-04-01T01:28:59.224Z,3.67
2017-04-01T01:29:57.983Z,3.48
2017-04-01T01:30:56.757Z,3.85
2017-04-01T01:31:55.513Z,3.53
2017-04-01T01:32:54.671Z,4.05
2017-04-01T01:33:53.443Z,4.07
2017-04-01T01:34:52.183Z,3.32
2017-04-01T01:35:50.963Z,4.20
2017-04-01T01:36:49.740Z,4.35
2017-04-01T01:37:48.486Z,3.48
2017-04-01T01:38:52.438Z,3.20
2017-04-01T01:39:51.183Z,3.78
2017-04-01T01:40:49.944Z,4.02
2017-04-01T01:41:49.035Z,3.40
2017-04-01T01:42:47.372Z,4.33
2017-04-01T01:43:46.118Z,4.57
2017-04-01T01:44:45.144Z,3.77
2017-04-01T01:45:43.888Z,4.98
2017-04-01T01:46:42.649Z,3.47
2017-04-01T01:47:41.395Z,4.60
2017-04-01T01:48:40.379Z,4.88
2017-04-01T01:49:38.755Z,4.48
2017-04-01T01:50:37.888Z,4.42
2017-04-01T01:51:36.639Z,4.28
2017-04-01T01:52:35.494Z,4.37
2017-04-01T01:53:34.262Z,4.20
2017-04-01T01:54:33.013Z,4.18
2017-04-01T01:55:32.007Z,4.35
2017-04-01T01:56:31.168Z,5.85
2017-04-01T01:57:29.946Z,5.30
2017-04-01T01:58:28.315Z,5.32
2017-04-01T01:59:27.092Z,4.32
2017-04-01T02:00:25.859Z,4.78
2017-04-01T02:01:24.614Z,4.23
2017-04-01T02:02:23.315Z,3.70
2017-04-01T02:03:22.103Z,4.40
2017-04-01T02:04:20.978Z,4.13
2017-04-01T02:05:19.740Z,4.77
2017-04-01T02:06:18.540Z,4.43
2017-04-01T02:07:17.311Z,4.52
2017-04-01T02:08:16.495Z,4.18
2017-04-01T02:09:15.275Z,5.07
2017-04-01T02:10:14.276Z,4.17
2017-04-01T02:11:13.038Z,4.80
2017-04-01T02:12:11.835Z,4.22
2017-04-01T02:13:10.601Z,5.15
2017-04-01T02:14:09.603Z,5.02
2017-04-01T02:15:08.429Z,5.32
2017-04-01T02:16:06.780Z,4.83
2017-04-01T02:17:05.547Z,5.02
2017-04-01T02:18:03.895Z,4.93
2017-04-01T02:19:02.236Z,4.95
2017-04-01T02:20:01.316Z,4.92
2017-04-01T02:21:00.076Z,5.20
2017-04-01T02:21:58.667Z,5.37
2017-04-01T02:22:57.456Z,4.30
2017-04-01T02:23:56.203Z,5.13
2017-04-01T02:24:54.972Z,4.85
2017-04-01T02:25:54.188Z,5.07
2017-04-01T02:26:52.981Z,4.37
2017-04-01T02:27:51.714Z,5.03
2017-04-01T02:28:50.497Z,4.45
2017-04-01T02:29:49.255Z,4.83
2017-04-01T02:30:48.033Z,4.52
2017-04-01T02:31:46.763Z,5.07
2017-04-01T02:32:45.543Z,5.62
2017-04-01T02:33:44.273Z,5.48
2017-04-01T02:34:42.702Z,5.05
2017-04-01T02:35:41.472Z,5.40
2017-04-01T02:36:40.302Z,5.32
2017-04-01T02:37:39.415Z,4.78
2017-04-01T02:38:38.197Z,5.07
2017-04-01T02:39:36.975Z,4.22
2017-04-01T02:40:35.735Z,4.52
2017-04-01T02:41:34.555Z,4.48
2017-04-01T02:42:33.335Z,4.27
2017-04-01T02:43:32.495Z,4.15
2017-04-01T02:44:31.318Z,5.17
2017-04-01T02:45:30.079Z,4.35
2017-04-01T02:46:28.452Z,4.42
2017-04-01T02:47:27.207Z,4.48
2017-04-01T02:48:25.935Z,4.80
2017-04-01T02:49:25.065Z,4.42
2017-04-01T02:50:23.883Z,5.38
2017-04-01T02:51:22.716Z,5.53
2017-04-01T02:52:21.495Z,4.37
2017-04-01T02:53:20.273Z,4.50
2017-04-01T02:54:19.004Z,3.98
2017-04-01T02:55:18.140Z,4.33
2017-04-01T02:56:16.926Z,4.62
2017-04-01T02:57:15.709Z,4.55
2017-04-01T02:58:14.459Z,4.72
2017-04-01T02:59:13.201Z,4.63
2017-04-01T03:00:12.007Z,5.08
2017-04-01T03:01:11.419Z,5.17
2017-04-01T03:02:10.259Z,4.48
2017-04-01T03:03:09.056Z,4.35
2017-04-01T03:04:07.432Z,4.47
2017-04-01T03:05:06.178Z,4.92
2017-04-01T03:06:04.919Z,4.80
2017-04-01T03:07:03.988Z,4.73
2017-04-01T03:08:02.824Z,4.53
2017-04-01T03:09:01.660Z,4.73
2017-04-01T03:10:00.102Z,4.50
2017-04-01T03:10:58.820Z,4.90
2017-04-01T03:11:57.563Z,3.97
2017-04-01T03:12:56.651Z,5.18
2017-04-01T03:13:55.412Z,5.02
2017-04-01T03:14:54.282Z,3.92
2017-04-01T03:15:53.046Z,5.40
2017-04-01T03:16:51.872Z,5.02
2017-04-01T03:17:50.646Z,4.98
2017-04-01T03:18:49.827Z,4.88
2017-04-01T03:19:48.575Z,4.87
2017-04-01T03:20:47.431Z,4.57
2017-04-01T03:21:45.895Z,4.60
2017-04-01T03:22:44.235Z,5.65
2017-04-01T03:23:42.979Z,4.27
2017-04-01T03:24:42.084Z,5.22
2017-04-01T03:25:40.842Z,5.07
2017-04-01T03:26:39.613Z,4.67
2017-04-01T03:27:38.367Z,6.20
2017-04-01T03:28:37.115Z,4.77
2017-04-01T03:29:35.856Z,5.18
2017-04-01T03:30:34.966Z,4.70
2017-04-01T03:31:33.695Z,4.63
2017-04-01T03:32:32.083Z,5.12
2017-04-01T03:33:30.821Z,5.00
2017-04-01T03:34:29.227Z,4.72
2017-04-01T03:35:27.982Z,5.08
2017-04-01T03:36:27.061Z,5.25
2017-04-01T03:37:25.799Z,4.72
2017-04-01T03:38:24.580Z,4.93
2017-04-01T03:39:23.376Z,5.33
2017-04-01T03:40:22.121Z,4.37
2017-04-01T03:41:20.875Z,5.18
2017-04-01T03:42:19.990Z,4.80
2017-04-01T03:43:18.772Z,4.72
2017-04-01T03:44:17.547Z,4.85
2017-04-01T03:45:16.299Z,5.63
2017-04-01T03:46:15.153Z,4.75
2017-04-01T03:47:13.522Z,5.43
2017-04-01T03:48:12.965Z,5.02
2017-04-01T03:49:11.706Z,5.13
2017-04-01T03:50:10.482Z,5.07
2017-04-01T03:51:09.264Z,5.08
2017-04-01T03:52:08.009Z,5.60
2017-04-01T03:53:06.777Z,5.82
2017-04-01T03:54:05.695Z,4.67
2017-04-01T03:55:04.508Z,4.88
2017-04-01T03:56:03.316Z,5.37
2017-04-01T03:57:01.679Z,5.18
2017-04-01T03:58:00.444Z,4.57
2017-04-01T03:58:59.185Z,4.98
2017-04-01T03:59:57.956Z,4.95
2017-04-01T04:00:56.334Z,5.63
2017-04-01T04:01:55.099Z,5.15
2017-04-01T04:02:53.860Z,4.57
2017-04-01T04:03:53.095Z,5.52
2017-04-01T04:04:51.822Z,4.88
2017-04-01T04:05:50.587Z,5.28
2017-04-01T04:06:49.328Z,5.67
2017-04-01T04:07:48.121Z,5.02
2017-04-01T04:08:47.147Z,5.40
2017-04-01T04:09:48.945Z,5.23
2017-04-01T04:10:51.324Z,5.43
2017-04-01T04:11:51.319Z,5.42
2017-04-01T04:12:55.006Z,5.15
2017-04-01T04:13:58.629Z,4.65
2017-04-01T04:15:00.133Z,5.30
2017-04-01T04:16:01.908Z,5.18
2017-04-01T04:17:00.664Z,4.87
2017-04-01T04:17:59.430Z,5.17
2017-04-01T04:18:58.180Z,4.60
2017-04-01T04:19:57.032Z,5.17
2017-04-01T04:20:55.765Z,4.57
2017-04-01T04:21:54.243Z,5.20
2017-04-01T04:22:52.993Z,5.13
2017-04-01T04:23:51.742Z,5.32
2017-04-01T04:24:50.488Z,4.75
2017-04-01T04:25:49.285Z,5.23
2017-04-01T04:26:48.035Z,4.48
2017-04-01T04:27:46.799Z,5.32
2017-04-01T04:28:45.548Z,5.12
2017-04-01T04:29:44.371Z,4.88
2017-04-01T04:30:44.810Z,4.87
2017-04-01T04:31:43.570Z,5.43
2017-04-01T04:32:42.303Z,5.38
2017-04-01T04:33:41.064Z,4.77
2017-04-01T04:34:39.451Z,4.67
2017-04-01T04:35:38.192Z,5.37
2017-04-01T04:36:37.011Z,5.28
2017-04-01T04:37:35.796Z,4.82
2017-04-01T04:38:34.539Z,5.83
2017-04-01T04:39:34.386Z,5.95
2017-04-01T04:40:33.140Z,6.88
2017-04-01T04:41:31.959Z,5.60
2017-04-01T04:42:30.681Z,5.25
2017-04-01T04:43:29.420Z,4.95
2017-04-01T04:44:28.170Z,5.40
2017-04-01T04:45:26.936Z,6.03
2017-04-01T04:46:25.715Z,6.65
2017-04-01T04:47:24.065Z,7.00
2017-04-01T04:48:22.804Z,8.30
2017-04-01T04:49:21.211Z,7.50
2017-04-01T04:50:19.952Z,7.90
2017-04-01T04:51:18.747Z,8.70
2017-04-01T04:52:17.127Z,6.02
2017-04-01T04:53:16.231Z,5.27
2017-04-01T04:54:14.592Z,5.75
2017-04-01T04:55:13.350Z,6.52
2017-04-01T04:56:12.080Z,5.78
2017-04-01T04:57:10.860Z,6.68
2017-04-01T04:58:09.583Z,6.30
2017-04-01T04:59:07.934Z,8.18
2017-04-01T05:00:06.716Z,8.73
2017-04-01T05:01:05.466Z,9.22
2017-04-01T05:02:04.227Z,8.07
2017-04-01T05:03:03.033Z,8.85
2017-04-01T05:04:01.783Z,7.25
2017-04-01T05:05:00.131Z,6.10
2017-04-01T05:05:58.483Z,6.12
2017-04-01T05:06:57.606Z,6.97
2017-04-01T05:07:56.345Z,6.20
2017-04-01T05:08:55.771Z,5.53
2017-04-01T05:09:54.522Z,7.45
2017-04-01T05:10:53.280Z,8.62
2017-04-01T05:11:52.073Z,9.78
2017-04-01T05:12:50.814Z,9.03
2017-04-01T05:13:50.559Z,8.87
2017-04-01T05:14:49.739Z,9.77
2017-04-01T05:15:49.290Z,9.17
2017-04-01T05:16:48.040Z,7.17
2017-04-01T05:17:46.875Z,6.60
2017-04-01T05:18:45.619Z,6.87
2017-04-01T05:19:44.459Z,5.67
2017-04-01T05:20:43.247Z,7.50
2017-04-01T05:21:43.063Z,6.45
2017-04-01T05:22:43.726Z,6.97
2017-04-01T05:23:42.545Z,8.30
2017-04-01T05:24:40.891Z,9.20
2017-04-01T05:25:39.655Z,8.47
2017-04-01T05:26:38.556Z,10.00
2017-04-01T05:27:36.919Z,6.38
2017-04-01T05:28:35.276Z,6.17
2017-04-01T05:29:34.767Z,5.87
2017-04-01T05:30:33.115Z,5.77
2017-04-01T05:31:31.910Z,5.72
2017-04-01T05:32:31.059Z,5.77
2017-04-01T05:33:30.618Z,6.32
2017-04-01T05:34:29.356Z,6.00
2017-04-01T05:35:28.147Z,8.42
2017-04-01T05:36:26.931Z,9.10
2017-04-01T05:37:25.327Z,9.92
2017-04-01T05:38:24.132Z,9.33
2017-04-01T05:39:22.868Z,10.02
2017-04-01T05:40:21.665Z,6.92
2017-04-01T05:41:20.439Z,7.45
2017-04-01T05:42:18.818Z,8.82
2017-04-01T05:43:17.603Z,9.37
2017-04-01T05:44:16.423Z,9.73
2017-04-01T05:45:15.180Z,10.20
2017-04-01T05:46:14.311Z,9.32
2017-04-01T05:47:13.417Z,9.73
2017-04-01T05:48:12.170Z,9.67
2017-04-01T05:49:10.979Z,10.47
2017-04-01T05:50:09.747Z,9.40
2017-04-01T05:51:08.525Z,7.92
2017-04-01T05:52:07.281Z,7.00
2017-04-01T05:53:06.043Z,6.65
2017-04-01T05:54:04.785Z,6.98
2017-04-01T05:55:03.570Z,7.10
2017-04-01T05:56:02.351Z,7.13
2017-04-01T05:57:01.187Z,6.62
2017-04-01T05:57:59.939Z,6.12
2017-04-01T05:58:58.287Z,9.48
2017-04-01T05:59:57.040Z,8.88
2017-04-01T06:00:55.877Z,8.60
2017-04-01T06:01:57.886Z,9.83
2017-04-01T06:02:57.143Z,10.53
2017-04-01T06:03:55.899Z,11.65
2017-04-01T06:04:57.316Z,9.30
2017-04-01T06:05:58.233Z,10.60
2017-04-01T06:06:57.156Z,11.27
2017-04-01T06:07:58.994Z,10.38
2017-04-01T06:08:57.802Z,9.25
2017-04-01T06:09:56.549Z,10.50
2017-04-01T06:10:55.680Z,10.05
2017-04-01T06:11:56.870Z,10.27
2017-04-01T06:12:55.635Z,9.95
2017-04-01T06:13:55.156Z,10.73
2017-04-01T06:14:53.900Z,10.17
2017-04-01T06:15:52.655Z,9.83
2017-04-01T06:16:51.383Z,9.38
2017-04-01T06:17:50.120Z,9.50
2017-04-01T06:18:48.924Z,9.92
2017-04-01T06:19:47.675Z,10.15
2017-04-01T06:20:46.452Z,8.98
2017-04-01T06:21:45.207Z,9.77
2017-04-01T06:22:44.291Z,9.28
2017-04-01T06:23:43.096Z,10.03
2017-04-01T06:24:41.875Z,9.20
2017-04-01T06:25:40.803Z,9.27
2017-04-01T06:26:39.565Z,10.13
2017-04-01T06:27:38.873Z,9.67
2017-04-01T06:28:37.657Z,10.02
2017-04-01T06:29:36.034Z,10.30
2017-04-01T06:30:34.855Z,10.43
2017-04-01T06:31:33.241Z,10.43
2017-04-01T06:32:31.614Z,10.03
2017-04-01T06:33:30.387Z,10.65
2017-04-01T06:34:28.751Z,10.43
2017-04-01T06:35:27.515Z,10.42
2017-04-01T06:36:26.300Z,10.38
2017-04-01T06:37:25.114Z,9.98
2017-04-01T06:38:23.502Z,10.47
2017-04-01T06:39:28.979Z,10.35
2017-04-01T06:40:28.448Z,10.50
2017-04-01T06:41:27.247Z,10.95
2017-04-01T06:42:25.982Z,10.28
2017-04-01T06:43:24.833Z,10.30
2017-04-01T06:44:23.598Z,10.03
2017-04-01T06:45:22.070Z,11.12
2017-04-01T06:46:20.848Z,9.87
2017-04-01T06:47:19.646Z,9.18
2017-04-01T06:48:18.392Z,10.38
2017-04-01T06:49:17.225Z,10.35
2017-04-01T06:50:15.991Z,9.85
2017-04-01T06:51:14.360Z,10.08
2017-04-01T06:52:12.772Z,10.58
2017-04-01T06:53:11.602Z,10.43
2017-04-01T06:54:09.972Z,10.33
2017-04-01T06:55:09.892Z,10.45
2017-04-01T06:56:08.303Z,9.83
2017-04-01T06:57:08.662Z,9.78
2017-04-01T06:58:07.950Z,9.83
2017-04-01T06:59:06.746Z,9.63
2017-04-01T07:00:05.503Z,10.90
2017-04-01T07:01:04.311Z,10.30
2017-04-01T07:02:03.016Z,9.63
2017-04-01T07:03:01.811Z,9.95
2017-04-01T07:04:00.562Z,9.40
2017-04-01T07:05:00.161Z,9.10
2017-04-01T07:05:58.958Z,10.42
2017-04-01T07:06:57.512Z,8.98
2017-04-01T07:07:56.475Z,9.63
2017-04-01T07:08:55.225Z,9.77
2017-04-01T07:09:53.964Z,9.75
2017-04-01T07:10:52.742Z,9.95
2017-04-01T07:11:51.523Z,9.68
2017-04-01T07:12:50.344Z,10.23
2017-04-01T07:13:49.183Z,9.85
2017-04-01T07:14:47.938Z,8.90
2017-04-01T07:15:47.391Z,10.42
2017-04-01T07:16:46.272Z,10.25
2017-04-01T07:17:45.095Z,10.90
2017-04-01T07:18:45.899Z,10.72
2017-04-01T07:19:44.663Z,10.83
2017-04-01T07:20:43.025Z,9.73
2017-04-01T07:21:41.375Z,9.73
2017-04-01T07:22:40.539Z,9.08
2017-04-01T07:23:39.450Z,10.40
2017-04-01T07:24:38.235Z,9.37
2017-04-01T07:25:36.979Z,11.72
2017-04-01T07:26:35.764Z,10.77
2017-04-01T07:27:34.183Z,10.67
2017-04-01T07:28:33.012Z,10.30
2017-04-01T07:29:31.750Z,9.62
2017-04-01T07:30:30.484Z,11.13
2017-04-01T07:31:29.867Z,10.25
2017-04-01T07:32:28.979Z,9.78
2017-04-01T07:33:27.815Z,10.13
2017-04-01T07:34:26.598Z,9.68
2017-04-01T07:35:25.362Z,10.88
2017-04-01T07:36:24.155Z,10.33
2017-04-01T07:37:23.284Z,9.75
2017-04-01T07:38:22.074Z,11.63
2017-04-01T07:39:21.016Z,11.15
2017-04-01T07:40:20.175Z,11.80
2017-04-01T07:41:18.950Z,11.90
2017-04-01T07:42:17.369Z,10.57
2017-04-01T07:43:16.158Z,9.43
2017-04-01T07:44:14.948Z,10.13
2017-04-01T07:45:13.756Z,11.38
2017-04-01T07:46:12.183Z,10.07
2017-04-01T07:47:10.951Z,10.72
2017-04-01T07:48:09.790Z,10.58
2017-04-01T07:49:08.564Z,10.93
2017-04-01T07:50:07.343Z,11.10
2017-04-01T07:51:06.109Z,12.30
2017-04-01T07:52:04.901Z,11.35
2017-04-01T07:53:03.688Z,11.37
2017-04-01T07:54:02.454Z,11.20
2017-04-01T07:55:01.228Z,11.95
2017-04-01T07:55:59.988Z,12.12
2017-04-01T07:56:58.737Z,11.42
2017-04-01T07:57:57.839Z,11.50
2017-04-01T07:58:56.600Z,11.65
2017-04-01T07:59:55.346Z,11.95
2017-04-01T08:00:54.132Z,11.45
2017-04-01T08:01:52.896Z,10.68
2017-04-01T08:02:51.655Z,10.65
2017-04-01T08:03:50.727Z,11.32
2017-04-01T08:04:49.500Z,9.45
2017-04-01T08:05:48.259Z,9.48
2017-04-01T08:06:47.028Z,10.48
2017-04-01T08:07:45.807Z,9.38
2017-04-01T08:08:44.611Z,9.97
2017-04-01T08:09:43.652Z,11.27
2017-04-01T08:10:42.019Z,9.32
2017-04-01T08:11:40.785Z,9.78
2017-04-01T08:12:39.535Z,9.73
2017-04-01T08:13:38.275Z,9.17
2017-04-01T08:14:37.021Z,9.20
2017-04-01T08:15:36.094Z,8.80
2017-04-01T08:16:34.840Z,9.68
2017-04-01T08:17:37.313Z,9.35
2017-04-01T08:18:36.418Z,10.07
2017-04-01T08:19:34.763Z,10.35
2017-04-01T08:20:33.555Z,10.53
2017-04-01T08:21:32.299Z,9.20
2017-04-01T08:22:31.043Z,9.38
2017-04-01T08:23:30.221Z,9.88
2017-04-01T08:24:29.332Z,9.37
2017-04-01T08:25:29.271Z,9.53
2017-04-01T08:26:28.021Z,10.10
2017-04-01T08:27:27.132Z,10.10
2017-04-01T08:28:26.111Z,10.15
2017-04-01T08:29:24.843Z,9.52
2017-04-01T08:30:23.229Z,11.22
2017-04-01T08:31:22.037Z,10.65
2017-04-01T08:32:20.757Z,10.90
2017-04-01T08:33:20.202Z,10.50
2017-04-01T08:34:18.977Z,9.82
2017-04-01T08:35:17.776Z,9.92
2017-04-01T08:36:16.156Z,10.43
2017-04-01T08:37:14.928Z,9.65
2017-04-01T08:38:13.691Z,10.38
2017-04-01T08:39:12.779Z,10.32
2017-04-01T08:40:11.556Z,10.23
2017-04-01T08:41:10.392Z,11.65
2017-04-01T08:42:09.151Z,10.85
2017-04-01T08:43:07.894Z,10.70
2017-04-01T08:44:06.667Z,11.07
2017-04-01T08:45:06.703Z,10.32
2017-04-01T08:46:05.456Z,14.35
2017-04-01T08:47:04.273Z,11.33
2017-04-01T08:48:02.813Z,11.15
2017-04-01T08:49:01.575Z,11.22
2017-04-01T08:50:00.367Z,10.27
2017-04-01T08:50:59.452Z,10.87
2017-04-01T08:51:58.311Z,11.42
2017-04-01T08:52:57.667Z,10.02
2017-04-01T08:53:56.431Z,11.27
2017-04-01T08:54:55.564Z,10.40
2017-04-01T08:55:54.325Z,11.08
2017-04-01T08:56:53.448Z,10.33
2017-04-01T08:57:53.715Z,9.45
2017-04-01T08:58:52.480Z,9.37
2017-04-01T08:59:50.844Z,9.77
2017-04-01T09:00:49.614Z,10.05
2017-04-01T09:01:48.442Z,10.27
2017-04-01T09:02:59.831Z,9.28
2017-04-01T09:03:58.617Z,10.77
2017-04-01T09:04:57.415Z,9.85
2017-04-01T09:05:56.195Z,9.83
2017-04-01T09:06:55.002Z,10.35
2017-04-01T09:07:53.755Z,9.28
2017-04-01T09:08:52.508Z,10.40
2017-04-01T09:09:52.516Z,9.63
2017-04-01T09:10:51.362Z,10.25
2017-04-01T09:11:50.513Z,9.85
2017-04-01T09:12:49.557Z,9.53
2017-04-01T09:13:48.299Z,10.32
2017-04-01T09:14:47.428Z,10.50
2017-04-01T09:15:46.205Z,10.45
2017-04-01T09:16:45.352Z,9.90
2017-04-01T09:17:44.132Z,9.15
2017-04-01T09:18:43.003Z,9.15
2017-04-01T09:19:42.408Z,9.60
2017-04-01T09:20:41.092Z,10.10
2017-04-01T09:21:39.833Z,9.55
2017-04-01T09:22:38.601Z,8.05
2017-04-01T09:23:37.376Z,10.50
2017-04-01T09:24:36.148Z,8.87
2017-04-01T09:25:36.009Z,9.35
2017-04-01T09:26:35.119Z,9.32
2017-04-01T09:27:34.465Z,9.33
2017-04-01T09:28:32.926Z,9.00
2017-04-01T09:29:32.898Z,10.47
2017-04-01T09:30:31.681Z,8.60
2017-04-01T09:31:30.473Z,9.33
2017-04-01T09:32:29.538Z,8.80
2017-04-01T09:33:28.299Z,8.63
2017-04-01T09:34:27.107Z,9.48
2017-04-01T09:35:25.884Z,10.07
2017-04-01T09:36:24.663Z,9.13
2017-04-01T09:37:23.472Z,9.58
2017-04-01T09:38:22.607Z,9.15
2017-04-01T09:39:21.364Z,10.15
2017-04-01T09:40:20.142Z,8.87
2017-04-01T09:41:19.103Z,9.38
2017-04-01T09:42:17.524Z,8.55
2017-04-01T09:43:16.337Z,9.60
2017-04-01T09:44:16.573Z,8.93
2017-04-01T09:45:15.453Z,8.05
2017-04-01T09:46:16.630Z,8.12
2017-04-01T09:47:15.531Z,7.78
2017-04-01T09:48:14.303Z,8.07
2017-04-01T09:49:13.187Z,7.97
2017-04-01T09:50:12.332Z,8.38
2017-04-01T09:51:11.731Z,7.87
2017-04-01T09:52:13.381Z,7.20
2017-04-01T09:53:12.191Z,6.40
2017-04-01T09:54:11.539Z,6.85
2017-04-01T09:55:09.943Z,6.95
2017-04-01T09:56:09.172Z,6.70
2017-04-01T09:57:07.951Z,6.85
2017-04-01T09:58:09.453Z,5.98
2017-04-01T09:59:07.829Z,7.53
2017-04-01T10:00:06.622Z,6.28
2017-04-01T10:01:05.784Z,5.93
2017-04-01T10:02:05.016Z,6.42
2017-04-01T10:03:03.414Z,6.77
2017-04-01T10:04:02.219Z,6.38
2017-04-01T10:05:01.003Z,6.63
2017-04-01T10:05:59.860Z,6.82
2017-04-01T10:06:58.648Z,5.57
2017-04-01T10:07:59.078Z,6.88
2017-04-01T10:08:57.859Z,6.48
2017-04-01T10:09:56.631Z,7.87
2017-04-01T10:10:55.394Z,9.10
2017-04-01T10:11:54.359Z,6.02
2017-04-01T10:12:53.115Z,5.72
2017-04-01T10:13:51.839Z,6.03
2017-04-01T10:14:50.687Z,5.95
2017-04-01T10:15:49.458Z,6.08
2017-04-01T10:16:48.311Z,5.10
2017-04-01T10:17:47.109Z,5.50
2017-04-01T10:18:45.846Z,5.52
2017-04-01T10:19:45.007Z,5.40
2017-04-01T10:20:44.627Z,5.92
2017-04-01T10:21:43.372Z,5.55
2017-04-01T10:22:42.147Z,7.98
2017-04-01T10:23:40.928Z,7.00
2017-04-01T10:24:39.679Z,6.10
2017-04-01T10:25:38.815Z,5.70
2017-04-01T10:26:37.579Z,5.55
2017-04-01T10:27:37.203Z,4.50
2017-04-01T10:28:35.954Z,5.70
2017-04-01T10:29:35.831Z,5.93
2017-04-01T10:30:34.212Z,5.83
2017-04-01T10:31:33.316Z,5.68
2017-04-01T10:32:32.079Z,5.57
2017-04-01T10:33:31.521Z,6.23
2017-04-01T10:34:30.671Z,6.67
2017-04-01T10:35:29.467Z,7.10
2017-04-01T10:36:27.848Z,5.90
2017-04-01T10:37:27.007Z,6.12
2017-04-01T10:38:25.760Z,5.87
2017-04-01T10:39:24.583Z,5.97
2017-04-01T10:40:23.343Z,5.58
2017-04-01T10:41:22.119Z,5.97
2017-04-01T10:42:20.963Z,4.80
2017-04-01T10:43:20.067Z,5.22
2017-04-01T10:44:18.844Z,7.98
2017-04-01T10:45:18.692Z,6.63
2017-04-01T10:46:20.514Z,7.45
2017-04-01T10:47:19.325Z,6.65
2017-04-01T10:48:18.083Z,5.75
2017-04-01T10:49:17.162Z,5.57
2017-04-01T10:50:15.956Z,5.97
2017-04-01T10:51:14.871Z,5.45
2017-04-01T10:52:13.296Z,5.60
2017-04-01T10:53:12.062Z,6.35
2017-04-01T10:54:10.817Z,6.63
2017-04-01T10:55:09.865Z,6.33
2017-04-01T10:56:08.618Z,6.85
2017-04-01T10:57:07.431Z,7.37
2017-04-01T10:58:06.324Z,6.48
2017-04-01T10:59:05.620Z,6.47
2017-04-01T11:00:04.283Z,5.75
2017-04-01T11:01:03.415Z,4.95
2017-04-01T11:02:05.635Z,4.38
2017-04-01T11:03:06.644Z,6.32
2017-04-01T11:04:04.986Z,6.38
2017-04-01T11:05:03.762Z,5.92
2017-04-01T11:06:02.240Z,6.97
2017-04-01T11:07:01.299Z,5.30
2017-04-01T11:08:00.099Z,5.43
2017-04-01T11:08:58.559Z,4.45
2017-04-01T11:09:57.348Z,4.28
2017-04-01T11:10:56.106Z,4.22
2017-04-01T11:11:54.954Z,3.73
2017-04-01T11:12:54.072Z,3.85
2017-04-01T11:13:52.851Z,3.73
2017-04-01T11:14:51.604Z,3.10
2017-04-01T11:15:50.896Z,3.23
2017-04-01T11:16:49.278Z,3.32
2017-04-01T11:17:50.892Z,3.10
2017-04-01T11:18:50.936Z,3.40
2017-04-01T11:19:49.714Z,4.28
2017-04-01T11:20:48.464Z,3.93
2017-04-01T11:21:46.873Z,4.45
2017-04-01T11:22:45.607Z,3.82
2017-04-01T11:23:44.359Z,4.63
2017-04-01T11:24:43.500Z,4.63
2017-04-01T11:25:42.268Z,4.32
2017-04-01T11:26:42.142Z,3.73
2017-04-01T11:27:40.921Z,3.32
2017-04-01T11:28:39.656Z,3.68
2017-04-01T11:29:38.422Z,4.05
2017-04-01T11:30:37.619Z,3.57
2017-04-01T11:31:36.383Z,3.32
2017-04-01T11:32:35.233Z,3.27
2017-04-01T11:33:33.985Z,3.28
2017-04-01T11:34:32.864Z,3.37
2017-04-01T11:35:31.640Z,3.60
2017-04-01T11:36:31.093Z,3.62
2017-04-01T11:37:29.856Z,3.03
2017-04-01T11:38:28.627Z,3.22
2017-04-01T11:39:27.391Z,2.45
2017-04-01T11:40:25.771Z,2.82
2017-04-01T11:41:24.554Z,2.65
2017-04-01T11:42:23.659Z,3.07
2017-04-01T11:43:22.455Z,2.58
2017-04-01T11:44:21.972Z,2.87
2017-04-01T11:45:20.891Z,2.73
2017-04-01T11:46:20.583Z,2.98
2017-04-01T11:47:19.364Z,3.50
2017-04-01T11:48:18.488Z,2.32
2017-04-01T11:49:17.255Z,3.10
2017-04-01T11:50:16.049Z,2.30
2017-04-01T11:51:14.607Z,2.48
2017-04-01T11:52:13.455Z,2.53
2017-04-01T11:53:11.823Z,2.67
2017-04-01T11:54:11.450Z,2.20
2017-04-01T11:55:10.244Z,2.50
2017-04-01T11:56:09.002Z,2.17
2017-04-01T11:57:07.735Z,2.05
2017-04-01T11:58:06.519Z,2.82
2017-04-01T11:59:05.313Z,2.38
2017-04-01T12:00:04.530Z,2.12
2017-04-01T12:01:02.887Z,2.75
2017-04-01T12:02:01.238Z,2.48
2017-04-01T12:02:59.987Z,2.10
2017-04-01T12:03:59.975Z,2.63
2017-04-01T12:04:59.311Z,1.88
2017-04-01T12:05:59.040Z,2.40
2017-04-01T12:06:57.827Z,2.20
2017-04-01T12:07:57.230Z,2.08
2017-04-01T12:08:55.965Z,2.75
2017-04-01T12:09:54.707Z,2.03
2017-04-01T12:10:53.443Z,2.57
2017-04-01T12:11:53.875Z,2.33
2017-04-01T12:12:52.606Z,2.30
2017-04-01T12:13:51.363Z,2.72
2017-04-01T12:14:53.350Z,1.88
2017-04-01T12:15:51.710Z,2.93
2017-04-01T12:16:50.547Z,2.10
2017-04-01T12:17:49.595Z,1.90
2017-04-01T12:18:48.330Z,2.40
2017-04-01T12:19:47.065Z,2.78
2017-04-01T12:20:45.800Z,2.30
2017-04-01T12:21:44.580Z,2.50
2017-04-01T12:22:42.945Z,2.23
2017-04-01T12:23:42.059Z,2.67
2017-04-01T12:24:40.807Z,2.47
2017-04-01T12:25:39.676Z,2.10
2017-04-01T12:26:38.663Z,2.08
2017-04-01T12:27:37.826Z,2.15
2017-04-01T12:28:36.566Z,2.28
2017-04-01T12:29:35.612Z,2.30
2017-04-01T12:30:34.346Z,2.13
2017-04-01T12:31:33.099Z,2.65
2017-04-01T12:32:31.852Z,2.33
2017-04-01T12:33:30.887Z,2.32
2017-04-01T12:34:29.643Z,2.12
2017-04-01T12:35:28.730Z,2.13
2017-04-01T12:36:27.478Z,2.80
2017-04-01T12:37:26.224Z,2.23
2017-04-01T12:38:24.584Z,2.55
2017-04-01T12:39:23.350Z,1.63
2017-04-01T12:40:22.150Z,2.30
2017-04-01T12:41:21.602Z,2.18
2017-04-01T12:42:20.365Z,2.17
2017-04-01T12:43:19.161Z,2.17
2017-04-01T12:44:17.959Z,2.70
2017-04-01T12:45:16.739Z,2.65
2017-04-01T12:46:15.509Z,2.47
2017-04-01T12:47:14.692Z,2.40
2017-04-01T12:48:13.446Z,2.17
2017-04-01T12:49:12.220Z,2.68
2017-04-01T12:50:11.055Z,2.18
2017-04-01T12:51:09.844Z,2.77
2017-04-01T12:52:08.659Z,2.85
2017-04-01T12:53:07.767Z,2.10
2017-04-01T12:54:06.580Z,2.47
2017-04-01T12:55:05.982Z,2.30
2017-04-01T12:56:04.784Z,2.53
2017-04-01T12:57:03.534Z,2.27
2017-04-01T12:58:02.328Z,2.37
2017-04-01T12:59:01.047Z,2.15
2017-04-01T12:59:59.850Z,1.78
2017-04-01T13:00:58.604Z,1.82